地図

経路データ

SID SEASON NUMBER BASIN SUBBASIN NAME ISO_TIME NATURE LAT LON WMO_WIND WMO_PRES WMO_AGENCY TRACK_TYPE DIST2LAND LANDFALL IFLAG USA_AGENCY USA_ATCF_ID USA_LAT USA_LON USA_RECORD USA_STATUS USA_WIND USA_PRES USA_SSHS USA_R34_NE USA_R34_SE USA_R34_SW USA_R34_NW USA_R50_NE USA_R50_SE USA_R50_SW USA_R50_NW USA_R64_NE USA_R64_SE USA_R64_SW USA_R64_NW USA_POCI USA_ROCI USA_RMW USA_EYE TOKYO_LAT TOKYO_LON TOKYO_GRADE TOKYO_WIND TOKYO_PRES TOKYO_R50_DIR TOKYO_R50_LONG TOKYO_R50_SHORT TOKYO_R30_DIR TOKYO_R30_LONG TOKYO_R30_SHORT TOKYO_LAND CMA_LAT CMA_LON CMA_CAT CMA_WIND CMA_PRES HKO_LAT HKO_LON HKO_CAT HKO_WIND HKO_PRES NEWDELHI_LAT NEWDELHI_LON NEWDELHI_GRADE NEWDELHI_WIND NEWDELHI_PRES NEWDELHI_CI NEWDELHI_DP NEWDELHI_POCI REUNION_LAT REUNION_LON REUNION_TYPE REUNION_WIND REUNION_PRES REUNION_TNUM REUNION_CI REUNION_RMW REUNION_R34_NE REUNION_R34_SE REUNION_R34_SW REUNION_R34_NW REUNION_R50_NE REUNION_R50_SE REUNION_R50_SW REUNION_R50_NW REUNION_R64_NE REUNION_R64_SE REUNION_R64_SW REUNION_R64_NW BOM_LAT BOM_LON BOM_TYPE BOM_WIND BOM_PRES BOM_TNUM BOM_CI BOM_RMW BOM_R34_NE BOM_R34_SE BOM_R34_SW BOM_R34_NW BOM_R50_NE BOM_R50_SE BOM_R50_SW BOM_R50_NW BOM_R64_NE BOM_R64_SE BOM_R64_SW BOM_R64_NW BOM_ROCI BOM_POCI BOM_EYE BOM_POS_METHOD BOM_PRES_METHOD NADI_LAT NADI_LON NADI_CAT NADI_WIND NADI_PRES WELLINGTON_LAT WELLINGTON_LON WELLINGTON_WIND WELLINGTON_PRES DS824_LAT DS824_LON DS824_STAGE DS824_WIND DS824_PRES TD9636_LAT TD9636_LON TD9636_STAGE TD9636_WIND TD9636_PRES TD9635_LAT TD9635_LON TD9635_WIND TD9635_PRES TD9635_ROCI NEUMANN_LAT NEUMANN_LON NEUMANN_CLASS NEUMANN_WIND NEUMANN_PRES MLC_LAT MLC_LON MLC_CLASS MLC_WIND MLC_PRES USA_GUST BOM_GUST BOM_GUST_PER REUNION_GUST REUNION_GUST_PER USA_SEAHGT USA_SEARAD_NE USA_SEARAD_SE USA_SEARAD_SW USA_SEARAD_NW STORM_SPEED STORM_DIR
1987238N10213 1987 63 EP CP OKA 1987-08-26 00:00:00 TS 9.50000 -147.000 25 hurdat_epa main 1394 1355 O_________O___ hurdat_epa CP011987 9.50000 -147.000 TD 25 -1 9.50000 -147.000 1 25 12 266
1987238N10213 1987 63 EP CP OKA 1987-08-26 03:00:00 TS 9.45768 -147.609 main 1355 1328 P_________P___ CP011987 9.44525 -147.605 TD 30 -1 9.44741 -147.582 1 28 12 266
1987238N10213 1987 63 EP CP OKA 1987-08-26 06:00:00 TS 9.42110 -148.214 35 hurdat_epa main 1328 1293 O_________P___ hurdat_epa CP011987 9.40000 -148.200 TS 35 0 9.40549 -148.170 1 32 12 267
1987238N10213 1987 63 EP CP OKA 1987-08-26 09:00:00 TS 9.40054 -148.816 main 1293 1261 P_________P___ CP011987 9.37732 -148.785 TS 37 0 9.38584 -148.774 1 36 12 270
1987238N10213 1987 63 EP CP OKA 1987-08-26 12:00:00 TS 9.42000 -149.440 40 hurdat_epa main 1261 1212 O_________O___ hurdat_epa CP011987 9.40000 -149.400 TS 40 0 9.40000 -149.400 2 40 13 274
1987238N10213 1987 63 EP CP OKA 1987-08-26 15:00:00 TS 9.49500 -150.122 main 1212 1167 P_________P___ CP011987 9.47753 -150.100 TS 40 0 9.45748 -150.052 2 40 14 278
1987238N10213 1987 63 EP CP OKA 1987-08-26 18:00:00 TS 9.61200 -150.803 40 hurdat_epa main 1167 1129 O_________P___ hurdat_epa CP011987 9.60000 -150.800 TS 40 0 9.56001 -150.715 2 40 13 281
1987238N10213 1987 63 EP CP OKA 1987-08-26 21:00:00 TS 9.73489 -151.432 main 1129 1083 P_________P___ CP011987 9.72739 -151.430 TS 40 0 9.70750 -151.371 2 40 12 284
1987238N10213 1987 63 EP CP OKA 1987-08-27 00:00:00 TS 9.90000 -152.020 40 hurdat_epa main 1083 1043 O_________O___ hurdat_epa CP011987 9.90000 -152.000 TS 40 0 9.90000 -152.000 2 40 12 289
1987238N10213 1987 63 EP CP OKA 1987-08-27 03:00:00 TS 10.1166 -152.563 main 1040 991 P_________P___ CP011987 10.1273 -152.500 TS 40 0 10.1312 -152.567 2 40 12 294
1987238N10213 1987 63 EP CP OKA 1987-08-27 06:00:00 TS 10.3808 -153.102 40 hurdat_epa main 991 945 O_________P___ hurdat_epa CP011987 10.4000 -153.000 TS 40 0 10.4041 -153.108 2 40 12 297
1987238N10213 1987 63 EP CP OKA 1987-08-27 09:00:00 TS 10.6709 -153.679 main 942 898 P_________P___ CP011987 10.6924 -153.578 TS 40 0 10.6999 -153.645 2 40 13 297
1987238N10213 1987 63 EP CP OKA 1987-08-27 12:00:00 TS 10.9800 -154.280 40 hurdat_epa main 897 855 O_________O___ hurdat_epa CP011987 11.0000 -154.200 TS 40 0 11.0000 -154.200 2 40 14 297
1987238N10213 1987 63 EP CP OKA 1987-08-27 15:00:00 TS 11.2913 -154.913 main 855 817 P_________P___ CP011987 11.3075 -154.850 TS 45 0 11.2916 -154.848 2 42 14 296
1987238N10213 1987 63 EP CP OKA 1987-08-27 18:00:00 TS 11.5961 -155.542 50 hurdat_epa main 817 784 O_________P___ hurdat_epa CP011987 11.6000 -155.500 TS 50 0 11.5806 -155.509 2 45 14 296
1987238N10213 1987 63 EP CP OKA 1987-08-27 21:00:00 TS 11.8873 -156.158 main 785 765 P_________P___ CP011987 11.8725 -156.145 TS 50 0 11.8542 -156.142 2 47 13 296
1987238N10213 1987 63 EP CP OKA 1987-08-28 00:00:00 TS 12.1400 -156.700 50 hurdat_epa main 768 749 O_________O___ hurdat_epa CP011987 12.1000 -156.700 TS 50 0 12.1000 -156.700 2 50 10 296
1987238N10213 1987 63 EP CP OKA 1987-08-28 03:00:00 TS 12.3324 -157.111 main 753 739 P_________P___ CP011987 12.2573 -157.088 TS 50 0 12.3028 -157.118 2 50 8 296
1987238N10213 1987 63 EP CP OKA 1987-08-28 06:00:00 TS 12.4958 -157.452 50 hurdat_epa main 741 729 O_________P___ hurdat_epa CP011987 12.4000 -157.400 TS 50 0 12.4788 -157.461 2 50 7 297
1987238N10213 1987 63 EP CP OKA 1987-08-28 09:00:00 TS 12.6680 -157.787 main 729 725 P_________P___ CP011987 12.5924 -157.735 TS 50 0 12.6405 -157.774 2 50 8 297
1987238N10213 1987 63 EP CP OKA 1987-08-28 12:00:00 TS 12.8400 -158.140 50 hurdat_epa main 729 720 O_________O___ hurdat_epa CP011987 12.8000 -158.100 TS 50 0 12.8000 -158.100 2 50 8 295
1987238N10213 1987 63 EP CP OKA 1987-08-28 15:00:00 TS 13.0260 -158.565 main 729 719 P_________P___ CP011987 13.0075 -158.542 TS 47 0 13.0075 -158.511 2 47 9 293
1987238N10213 1987 63 EP CP OKA 1987-08-28 18:00:00 TS 13.2020 -159.008 45 hurdat_epa main 728 724 O_________P___ hurdat_epa CP011987 13.2000 -159.000 TS 45 0 13.2101 -158.942 2 45 9 292
1987238N10213 1987 63 EP CP OKA 1987-08-28 21:00:00 TS 13.3674 -159.425 main 731 731 P_________P___ CP011987 13.3799 -159.407 TS 42 0 13.3825 -159.377 2 42 9 289
1987238N10213 1987 63 EP CP OKA 1987-08-29 00:00:00 TS 13.4800 -159.840 40 hurdat_epa main 746 746 O_________O___ hurdat_epa CP011987 13.5000 -159.800 TS 40 0 13.5000 -159.800 2 40 8 280
1987238N10213 1987 63 EP CP OKA 1987-08-29 03:00:00 TS 13.5124 -160.272 main 778 778 P_________P___ CP011987 13.5300 -160.208 TS 40 0 13.5570 -160.194 2 37 8 271
1987238N10213 1987 63 EP CP OKA 1987-08-29 06:00:00 TS 13.4911 -160.695 40 hurdat_epa main 806 806 O_________P___ hurdat_epa CP011987 13.5000 -160.600 TS 40 0 13.5554 -160.574 2 35 8 266
1987238N10213 1987 63 EP CP OKA 1987-08-29 09:00:00 TS 13.4637 -161.086 main 835 835 P_________P___ CP011987 13.4724 -160.957 TS 35 0 13.5011 -160.942 2 32 8 263
1987238N10213 1987 63 EP CP OKA 1987-08-29 12:00:00 TS 13.4000 -161.460 30 hurdat_epa main 873 873 O_________O___ hurdat_epa CP011987 13.4000 -161.300 TD 30 -1 13.4000 -161.300 1 30 7 257
1987238N10213 1987 63 EP CP OKA 1987-08-29 15:00:00 TS 13.2927 -161.830 main 904 904 P_________P___ CP011987 13.2676 -161.648 TD 25 -1 13.2603 -161.652 1 25 8 252
1987238N10213 1987 63 EP CP OKA 1987-08-29 18:00:00 TS 13.1600 -162.200 20 hurdat_epa main 942 O_________O___ hurdat_epa CP011987 13.1000 -162.000 TD 20 -1 13.1000 -162.000 1 20 8 250

IBTrACS Databaseについて

本データベースは、米国NOAAが公開する1842年以降の世界の熱帯低気圧のベストトラックデータアーカイブInternational Best Track Archive for Climate Stewardship (IBTrACS)を、ウェブで閲覧しやすい形式に変換したものです。

最終更新日:2021-10-08